Terminal Aerodrome Forecast
Issued by NWS

Home | Current Version | Previous Version | Text Only | Print | Product List | Glossary Off
Versions: 1 2 3 4 5 6 7 8 9 10 11 12 13 14 15 16 17 18 19 20

329
FTUS43 KMPX 081740
TAFAXN
TAF
KAXN 081740Z 0818/0918 29012KT P6SM FEW008 OVC090
     FM082200 29016G25KT P6SM OVC008
     FM090100 32024G37KT P6SM OVC015
     FM090500 34017G26KT P6SM BKN015
     FM091200 33013KT P6SM BKN025=

USA.gov is the U.S. government's official web portal to all federal, state and local government web resources and services.